createdAt,value
2018-12-21T00:00:05.142Z,5.97
2018-12-21T00:01:05.063Z,5.98
2018-12-21T00:02:05.151Z,5.93
2018-12-21T00:03:05.391Z,5.91
2018-12-21T00:04:14.289Z,5.97
2018-12-21T00:05:05.004Z,5.97
2018-12-21T00:06:04.986Z,5.90
2018-12-21T00:07:04.982Z,5.93
2018-12-21T00:08:05.111Z,5.97
2018-12-21T00:09:05.398Z,5.87
2018-12-21T00:10:04.948Z,5.83
2018-12-21T00:11:05.031Z,5.91
2018-12-21T00:12:06.406Z,5.91
2018-12-21T00:13:06.163Z,5.87
2018-12-21T00:14:04.904Z,5.79
2018-12-21T00:15:05.577Z,5.84
2018-12-21T00:16:04.901Z,5.86
2018-12-21T00:17:05.573Z,5.79
2018-12-21T00:18:04.877Z,5.75
2018-12-21T00:19:05.976Z,5.84
2018-12-21T00:20:04.892Z,5.72
2018-12-21T00:21:05.142Z,5.71
2018-12-21T00:22:04.899Z,5.64
2018-12-21T00:23:05.579Z,5.71
2018-12-21T00:24:04.885Z,5.66
2018-12-21T00:25:04.852Z,5.64
2018-12-21T00:26:04.848Z,5.73
2018-12-21T00:27:04.861Z,5.59
2018-12-21T00:28:04.846Z,5.61
2018-12-21T00:29:19.635Z,5.64
2018-12-21T00:30:04.727Z,5.44
2018-12-21T00:31:04.828Z,5.47
2018-12-21T00:32:04.702Z,5.50
2018-12-21T00:33:04.692Z,5.51
2018-12-21T00:34:06.339Z,5.48
2018-12-21T00:35:05.051Z,5.47
2018-12-21T00:36:04.657Z,5.48
2018-12-21T00:37:05.501Z,5.36
2018-12-21T00:38:05.739Z,5.43
2018-12-21T00:39:04.625Z,5.35
2018-12-21T00:40:04.616Z,5.33
2018-12-21T00:41:04.636Z,5.36
2018-12-21T00:42:05.622Z,5.33
2018-12-21T00:43:05.169Z,5.32
2018-12-21T00:44:04.569Z,5.25
2018-12-21T00:45:04.573Z,5.26
2018-12-21T00:46:04.569Z,5.23
2018-12-21T00:47:04.543Z,5.25
2018-12-21T00:48:05.005Z,5.23
2018-12-21T00:49:04.577Z,5.18
2018-12-21T00:50:04.505Z,5.18
2018-12-21T00:51:04.592Z,5.20
2018-12-21T00:52:04.486Z,5.21
2018-12-21T00:53:04.505Z,5.11
2018-12-21T00:54:04.614Z,5.21
2018-12-21T00:55:06.250Z,5.17
2018-12-21T00:56:04.449Z,5.17
2018-12-21T00:57:04.433Z,5.12
2018-12-21T00:58:04.608Z,5.17
2018-12-21T00:59:04.407Z,5.10
2018-12-21T01:00:04.401Z,5.07
2018-12-21T01:01:04.394Z,5.08
2018-12-21T01:02:04.373Z,5.07
2018-12-21T01:03:04.361Z,5.00
2018-12-21T01:04:04.550Z,5.05
2018-12-21T01:05:04.345Z,5.10
2018-12-21T01:06:04.349Z,4.96
2018-12-21T01:07:04.323Z,4.99
2018-12-21T01:08:04.480Z,4.97
2018-12-21T01:09:04.295Z,5.02
2018-12-21T01:10:05.157Z,5.08
2018-12-21T01:11:04.291Z,5.00
2018-12-21T01:12:04.272Z,5.00
2018-12-21T01:13:04.259Z,4.97
2018-12-21T01:14:04.240Z,5.00
2018-12-21T01:15:04.230Z,5.05
2018-12-21T01:16:07.483Z,5.07
2018-12-21T01:17:04.234Z,5.07
2018-12-21T01:18:04.206Z,5.00
2018-12-21T01:19:04.195Z,5.00
2018-12-21T01:20:04.179Z,5.00
2018-12-21T01:21:04.168Z,4.94
2018-12-21T01:22:04.586Z,5.05
2018-12-21T01:23:08.808Z,4.97
2018-12-21T01:24:04.200Z,5.10
2018-12-21T01:25:04.250Z,5.07
2018-12-21T01:26:04.105Z,5.07
2018-12-21T01:27:04.368Z,5.08
2018-12-21T01:28:05.522Z,5.07
2018-12-21T01:29:04.075Z,5.11
2018-12-21T01:30:04.080Z,5.18
2018-12-21T01:31:04.054Z,5.20
2018-12-21T01:32:04.377Z,5.17
2018-12-21T01:33:04.025Z,5.17
2018-12-21T01:34:04.016Z,5.15
2018-12-21T01:35:04.011Z,5.18
2018-12-21T01:36:03.995Z,5.21
2018-12-21T01:37:05.987Z,5.21
2018-12-21T01:38:04.360Z,5.23
2018-12-21T01:39:03.961Z,5.29
2018-12-21T01:40:04.062Z,5.26
2018-12-21T01:41:03.946Z,5.28
2018-12-21T01:42:03.936Z,5.23
2018-12-21T01:43:03.926Z,5.23
2018-12-21T01:44:04.528Z,5.23
2018-12-21T01:45:03.899Z,5.32
2018-12-21T01:46:03.889Z,5.32
2018-12-21T01:47:03.884Z,5.38
2018-12-21T01:48:03.919Z,5.32
2018-12-21T01:49:03.856Z,5.44
2018-12-21T01:50:03.986Z,5.38
2018-12-21T01:51:03.878Z,5.39
2018-12-21T01:52:03.817Z,5.38
2018-12-21T01:53:03.912Z,5.41
2018-12-21T01:54:03.804Z,5.35
2018-12-21T01:55:03.835Z,5.41
2018-12-21T01:56:03.882Z,5.43
2018-12-21T01:57:04.121Z,5.38
2018-12-21T01:58:06.245Z,5.41
2018-12-21T01:59:03.759Z,5.38
2018-12-21T02:00:03.739Z,5.36
2018-12-21T02:01:03.726Z,5.39
2018-12-21T02:02:03.711Z,5.47
2018-12-21T02:03:04.137Z,5.39
2018-12-21T02:04:03.685Z,5.39
2018-12-21T02:05:03.677Z,5.47
2018-12-21T02:06:03.670Z,5.47
2018-12-21T02:07:03.655Z,5.44
2018-12-21T02:08:03.642Z,5.41
2018-12-21T02:09:04.080Z,5.39
2018-12-21T02:10:03.620Z,5.41
2018-12-21T02:11:03.611Z,5.48
2018-12-21T02:12:03.604Z,5.50
2018-12-21T02:13:03.586Z,5.48
2018-12-21T02:14:03.733Z,5.46
2018-12-21T02:15:03.947Z,5.53
2018-12-21T02:16:03.825Z,5.41
2018-12-21T02:17:03.561Z,5.54
2018-12-21T02:18:03.533Z,5.50
2018-12-21T02:19:07.553Z,5.54
2018-12-21T02:20:03.513Z,5.59
2018-12-21T02:21:03.499Z,5.57
2018-12-21T02:22:03.487Z,5.59
2018-12-21T02:23:03.479Z,5.47
2018-12-21T02:24:03.470Z,5.46
2018-12-21T02:25:03.630Z,5.51
2018-12-21T02:26:03.511Z,5.56
2018-12-21T02:27:03.431Z,5.47
2018-12-21T02:28:03.421Z,5.48
2018-12-21T02:29:03.514Z,5.47
2018-12-21T02:30:03.399Z,5.44
2018-12-21T02:31:03.992Z,5.56
2018-12-21T02:32:03.384Z,5.61
2018-12-21T02:33:03.400Z,5.53
2018-12-21T02:34:03.358Z,5.57
2018-12-21T02:35:03.346Z,5.61
2018-12-21T02:36:03.336Z,5.64
2018-12-21T02:37:03.524Z,5.65
2018-12-21T02:38:03.315Z,5.59
2018-12-21T02:39:03.318Z,5.62
2018-12-21T02:40:05.541Z,5.62
2018-12-21T02:41:03.280Z,5.61
2018-12-21T02:42:03.280Z,5.62
2018-12-21T02:43:03.527Z,5.59
2018-12-21T02:44:03.413Z,5.64
2018-12-21T02:45:31.305Z,5.66
2018-12-21T02:46:03.357Z,5.62
2018-12-21T02:47:03.365Z,5.62
2018-12-21T02:48:03.202Z,5.68
2018-12-21T02:49:03.200Z,5.72
2018-12-21T02:50:03.223Z,5.62
2018-12-21T02:51:03.172Z,5.66
2018-12-21T02:52:05.708Z,5.71
2018-12-21T02:53:03.479Z,5.75
2018-12-21T02:54:03.143Z,5.68
2018-12-21T02:55:03.130Z,5.69
2018-12-21T02:56:03.309Z,5.66
2018-12-21T02:57:03.114Z,5.68
2018-12-21T02:58:03.100Z,5.76
2018-12-21T02:59:03.543Z,5.69
2018-12-21T03:00:03.072Z,5.76
2018-12-21T03:01:05.678Z,5.73
2018-12-21T03:02:03.068Z,5.68
2018-12-21T03:03:03.201Z,5.79
2018-12-21T03:04:03.040Z,5.84
2018-12-21T03:05:03.572Z,5.86
2018-12-21T03:06:03.011Z,5.80
2018-12-21T03:07:02.999Z,5.82
2018-12-21T03:08:02.988Z,5.80
2018-12-21T03:09:03.688Z,5.86
2018-12-21T03:10:03.016Z,5.76
2018-12-21T03:11:02.984Z,5.84
2018-12-21T03:12:02.955Z,5.86
2018-12-21T03:13:02.930Z,5.90
2018-12-21T03:14:02.953Z,5.87
2018-12-21T03:15:03.171Z,5.86
2018-12-21T03:16:02.982Z,5.84
2018-12-21T03:17:02.928Z,5.84
2018-12-21T03:18:03.114Z,5.90
2018-12-21T03:19:02.885Z,5.86
2018-12-21T03:20:03.119Z,5.80
2018-12-21T03:21:03.437Z,5.97
2018-12-21T03:22:14.279Z,5.93
2018-12-21T03:23:03.887Z,5.94
2018-12-21T03:24:03.154Z,5.91
2018-12-21T03:25:02.961Z,5.94
2018-12-21T03:26:04.256Z,5.91
2018-12-21T03:27:02.907Z,5.93
2018-12-21T03:28:02.917Z,6.01
2018-12-21T03:29:02.760Z,6.01
2018-12-21T03:30:02.753Z,5.94
2018-12-21T03:31:02.740Z,5.98
2018-12-21T03:32:03.161Z,5.99
2018-12-21T03:33:02.717Z,6.02
2018-12-21T03:34:02.704Z,6.09
2018-12-21T03:35:02.726Z,6.01
2018-12-21T03:36:02.704Z,6.01
2018-12-21T03:37:03.038Z,5.99
2018-12-21T03:38:03.413Z,6.05
2018-12-21T03:39:02.698Z,5.97
2018-12-21T03:40:02.635Z,5.98
2018-12-21T03:41:02.633Z,5.97
2018-12-21T03:42:03.022Z,6.05
2018-12-21T03:43:02.605Z,5.97
2018-12-21T03:44:03.085Z,6.05
2018-12-21T03:45:03.324Z,6.04
2018-12-21T03:46:02.606Z,6.08
2018-12-21T03:47:02.563Z,5.97
2018-12-21T03:48:02.703Z,6.12
2018-12-21T03:49:03.435Z,6.02
2018-12-21T03:50:03.105Z,6.01
2018-12-21T03:51:02.756Z,6.04
2018-12-21T03:52:02.605Z,6.09
2018-12-21T03:53:02.739Z,6.01
2018-12-21T03:54:03.031Z,6.11
2018-12-21T03:55:02.473Z,6.09
2018-12-21T03:56:03.876Z,6.09
2018-12-21T03:57:02.458Z,6.07
2018-12-21T03:58:02.435Z,6.08
2018-12-21T03:59:02.440Z,6.05
2018-12-21T04:00:03.157Z,5.94
2018-12-21T04:01:02.428Z,6.04
2018-12-21T04:02:02.623Z,6.01
2018-12-21T04:03:02.385Z,6.01
2018-12-21T04:04:02.375Z,5.99
2018-12-21T04:05:02.361Z,6.01
2018-12-21T04:06:02.597Z,5.98
2018-12-21T04:07:02.433Z,6.04
2018-12-21T04:08:02.561Z,5.94
2018-12-21T04:09:02.430Z,6.02
2018-12-21T04:10:02.312Z,5.97
2018-12-21T04:11:02.307Z,5.94
2018-12-21T04:12:02.284Z,6.02
2018-12-21T04:13:03.132Z,6.01
2018-12-21T04:14:02.273Z,5.97
2018-12-21T04:15:03.646Z,6.05
2018-12-21T04:16:02.242Z,5.97
2018-12-21T04:17:02.236Z,5.98
2018-12-21T04:18:02.225Z,5.98
2018-12-21T04:19:02.459Z,5.99
2018-12-21T04:20:02.219Z,6.05
2018-12-21T04:21:02.190Z,6.07
2018-12-21T04:22:02.197Z,5.99
2018-12-21T04:23:02.171Z,6.04
2018-12-21T04:24:02.153Z,6.07
2018-12-21T04:25:06.738Z,6.08
2018-12-21T04:26:02.196Z,6.08
2018-12-21T04:27:02.127Z,6.12
2018-12-21T04:28:02.121Z,6.08
2018-12-21T04:29:02.579Z,6.02
2018-12-21T04:30:02.092Z,6.07
2018-12-21T04:31:02.479Z,5.93
2018-12-21T04:32:02.069Z,6.07
2018-12-21T04:33:02.052Z,6.07
2018-12-21T04:34:02.048Z,6.01
2018-12-21T04:35:02.038Z,5.99
2018-12-21T04:36:02.031Z,6.07
2018-12-21T04:37:02.340Z,6.08
2018-12-21T04:38:02.088Z,6.07
2018-12-21T04:39:01.995Z,6.05
2018-12-21T04:40:02.007Z,5.97
2018-12-21T04:41:02.003Z,6.02
2018-12-21T04:42:01.990Z,5.97
2018-12-21T04:43:02.989Z,6.02
2018-12-21T04:44:01.937Z,5.94
2018-12-21T04:45:01.940Z,6.02
2018-12-21T04:46:01.912Z,5.94
2018-12-21T04:47:01.901Z,5.98
2018-12-21T04:48:02.083Z,6.01
2018-12-21T04:49:01.877Z,6.04
2018-12-21T04:50:01.875Z,5.98
2018-12-21T04:51:01.857Z,6.02
2018-12-21T04:52:01.846Z,6.02
2018-12-21T04:53:01.834Z,6.01
2018-12-21T04:54:02.007Z,6.01
2018-12-21T04:55:01.825Z,6.04
2018-12-21T04:56:01.817Z,5.90
2018-12-21T04:57:01.790Z,5.90
2018-12-21T04:58:02.087Z,5.99
2018-12-21T04:59:02.204Z,6.02
2018-12-21T05:00:01.931Z,6.04
2018-12-21T05:01:01.749Z,6.05
2018-12-21T05:02:01.768Z,5.93
2018-12-21T05:03:02.317Z,6.01
2018-12-21T05:04:02.130Z,5.99
2018-12-21T05:05:01.706Z,6.01
2018-12-21T05:06:01.699Z,5.99
2018-12-21T05:07:01.690Z,5.97
2018-12-21T05:08:01.675Z,5.97
2018-12-21T05:09:01.671Z,5.93
2018-12-21T05:10:01.965Z,5.94
2018-12-21T05:11:01.635Z,5.97
2018-12-21T05:12:01.635Z,5.90
2018-12-21T05:13:01.682Z,5.94
2018-12-21T05:14:01.621Z,5.93
2018-12-21T05:15:01.925Z,5.84
2018-12-21T05:16:01.949Z,5.94
2018-12-21T05:17:01.575Z,5.90
2018-12-21T05:18:01.985Z,5.99
2018-12-21T05:19:01.603Z,6.01
2018-12-21T05:20:01.815Z,5.99
2018-12-21T05:21:01.529Z,5.98
2018-12-21T05:22:01.911Z,6.01
2018-12-21T05:23:01.528Z,6.01
2018-12-21T05:24:01.900Z,5.94
2018-12-21T05:25:01.494Z,5.94
2018-12-21T05:26:01.478Z,5.97
2018-12-21T05:27:01.483Z,6.04
2018-12-21T05:28:01.456Z,5.99
2018-12-21T05:29:01.455Z,5.98
2018-12-21T05:30:01.941Z,5.97
2018-12-21T05:31:01.424Z,5.99
2018-12-21T05:32:01.495Z,5.98
2018-12-21T05:33:01.914Z,5.98
2018-12-21T05:34:01.389Z,6.02
2018-12-21T05:35:01.378Z,6.01
2018-12-21T05:36:01.977Z,5.97
2018-12-21T05:37:01.352Z,5.97
2018-12-21T05:38:02.082Z,5.94
2018-12-21T05:39:02.506Z,5.99
2018-12-21T05:40:02.347Z,6.02
2018-12-21T05:41:01.803Z,6.01
2018-12-21T05:42:01.548Z,6.02
2018-12-21T05:43:03.942Z,5.98
2018-12-21T05:44:02.024Z,6.02
2018-12-21T05:45:01.272Z,5.98
2018-12-21T05:46:16.220Z,6.04
2018-12-21T05:47:01.266Z,5.97
2018-12-21T05:48:01.438Z,6.02
2018-12-21T05:49:01.398Z,6.04
2018-12-21T05:50:07.527Z,6.02
2018-12-21T05:51:02.473Z,5.94
2018-12-21T05:52:01.440Z,6.02
2018-12-21T05:53:01.522Z,5.99
2018-12-21T05:54:01.583Z,5.94
2018-12-21T05:55:03.265Z,6.02
2018-12-21T05:56:01.146Z,6.04
2018-12-21T05:57:01.852Z,5.98
2018-12-21T05:58:01.128Z,5.98
2018-12-21T05:59:01.130Z,5.94
2018-12-21T06:00:01.537Z,6.02
2018-12-21T06:01:02.069Z,6.02
2018-12-21T06:02:01.701Z,5.94
2018-12-21T06:03:01.084Z,6.01
2018-12-21T06:04:04.652Z,6.01
2018-12-21T06:05:02.699Z,6.02
2018-12-21T06:06:01.548Z,6.02
2018-12-21T06:07:01.891Z,6.05
2018-12-21T06:08:01.047Z,5.99
2018-12-21T06:09:01.004Z,6.05
2018-12-21T06:10:00.989Z,6.02
2018-12-21T06:11:01.197Z,6.01
2018-12-21T06:12:00.981Z,5.99
2018-12-21T06:13:02.349Z,6.09
2018-12-21T06:14:01.171Z,6.02
2018-12-21T06:15:00.936Z,6.08
2018-12-21T06:16:03.149Z,5.94
2018-12-21T06:17:01.187Z,5.98
2018-12-21T06:18:00.939Z,6.05
2018-12-21T06:19:04.061Z,6.02
2018-12-21T06:20:06.110Z,5.90
2018-12-21T06:21:01.763Z,5.94
2018-12-21T06:22:00.949Z,6.04
2018-12-21T06:23:09.376Z,6.12
2018-12-21T06:24:01.857Z,6.11
2018-12-21T06:25:01.193Z,6.12
2018-12-21T06:26:00.923Z,6.09
2018-12-21T06:27:01.081Z,6.09
2018-12-21T06:28:01.268Z,6.08
2018-12-21T06:29:01.295Z,6.02
2018-12-21T06:30:00.953Z,6.08
2018-12-21T06:31:00.913Z,6.05
2018-12-21T06:32:00.845Z,6.16
2018-12-21T06:33:00.754Z,6.14
2018-12-21T06:34:00.762Z,6.12
2018-12-21T06:35:00.983Z,6.02
2018-12-21T06:36:00.709Z,6.16
2018-12-21T06:37:00.710Z,6.04
2018-12-21T06:38:00.966Z,6.16
2018-12-21T06:39:00.680Z,6.11
2018-12-21T06:40:00.879Z,6.04
2018-12-21T06:41:01.422Z,6.14
2018-12-21T06:42:00.647Z,6.12
2018-12-21T06:43:01.181Z,6.07
2018-12-21T06:44:01.467Z,6.11
2018-12-21T06:45:00.611Z,6.05
2018-12-21T06:46:02.169Z,6.17
2018-12-21T06:47:21.477Z,6.17
2018-12-21T06:48:00.581Z,6.12
2018-12-21T06:49:00.563Z,6.02
2018-12-21T06:50:00.588Z,6.08
2018-12-21T06:51:00.549Z,6.16
2018-12-21T06:52:00.544Z,6.16
2018-12-21T06:53:01.084Z,6.08
2018-12-21T06:54:01.737Z,6.05
2018-12-21T06:55:04.900Z,6.12
2018-12-21T06:56:00.511Z,6.17
2018-12-21T06:57:00.489Z,6.09
2018-12-21T06:58:00.637Z,6.17
2018-12-21T06:59:13.981Z,6.17
2018-12-21T07:00:00.448Z,6.19
2018-12-21T07:01:00.752Z,6.17
2018-12-21T07:02:00.447Z,6.07
2018-12-21T07:03:00.457Z,6.17
2018-12-21T07:04:00.428Z,6.22
2018-12-21T07:05:02.983Z,6.16
2018-12-21T07:06:01.169Z,6.22
2018-12-21T07:07:01.452Z,6.20
2018-12-21T07:08:00.376Z,6.17
2018-12-21T07:09:01.331Z,6.20
2018-12-21T07:10:00.552Z,6.26
2018-12-21T07:11:04.263Z,6.20
2018-12-21T07:12:00.454Z,6.24
2018-12-21T07:13:00.322Z,6.19
2018-12-21T07:14:00.343Z,6.16
2018-12-21T07:15:00.298Z,6.16
2018-12-21T07:16:00.829Z,6.22
2018-12-21T07:17:00.267Z,6.20
2018-12-21T07:18:00.335Z,6.17
2018-12-21T07:19:01.585Z,6.22
2018-12-21T07:20:00.395Z,6.20
2018-12-21T07:21:00.249Z,6.19
2018-12-21T07:22:01.318Z,6.05
2018-12-21T07:23:00.219Z,6.09
2018-12-21T07:24:00.192Z,6.17
2018-12-21T07:25:00.291Z,5.99
2018-12-21T07:26:02.012Z,5.99
2018-12-21T07:27:00.327Z,6.12
2018-12-21T07:28:00.579Z,6.12
2018-12-21T07:29:00.262Z,6.05
2018-12-21T07:30:00.129Z,6.07
2018-12-21T07:31:00.158Z,6.07
2018-12-21T07:32:00.546Z,6.09
2018-12-21T07:33:00.087Z,6.09
2018-12-21T07:34:00.098Z,6.09
2018-12-21T07:35:00.200Z,6.09
2018-12-21T07:36:08.135Z,6.14
2018-12-21T07:37:01.560Z,6.07
2018-12-21T07:38:00.036Z,6.16
2018-12-21T07:39:00.021Z,6.11
2018-12-21T07:40:00.021Z,6.17
2018-12-21T07:41:00.006Z,6.07
2018-12-21T07:41:59.993Z,6.05
2018-12-21T07:43:00.799Z,6.19
2018-12-21T07:44:00.057Z,6.08
2018-12-21T07:44:59.966Z,6.02
2018-12-21T07:45:59.955Z,6.16
2018-12-21T07:47:01.097Z,6.11
2018-12-21T07:48:11.142Z,6.19
2018-12-21T07:48:59.940Z,6.09
2018-12-21T07:49:59.906Z,6.11
2018-12-21T07:51:00.067Z,6.02
2018-12-21T07:51:59.884Z,6.11
2018-12-21T07:52:59.893Z,6.17
2018-12-21T07:54:00.098Z,6.12
2018-12-21T07:54:59.852Z,6.09
2018-12-21T07:55:59.844Z,6.09
2018-12-21T07:56:59.934Z,6.19
2018-12-21T07:57:59.818Z,6.11
2018-12-21T07:58:59.871Z,6.08
2018-12-21T08:00:01.410Z,6.05
2018-12-21T08:00:59.879Z,6.11
2018-12-21T08:02:00.233Z,6.08
2018-12-21T08:03:00.152Z,6.11
2018-12-21T08:03:59.744Z,6.07
2018-12-21T08:04:59.745Z,6.08
2018-12-21T08:05:59.874Z,6.05
2018-12-21T08:06:59.738Z,6.14
2018-12-21T08:08:01.360Z,6.07
2018-12-21T08:08:59.701Z,6.19
2018-12-21T08:09:59.686Z,6.11
2018-12-21T08:11:00.238Z,6.09
2018-12-21T08:11:59.655Z,6.14
2018-12-21T08:12:59.648Z,6.26
2018-12-21T08:13:59.647Z,6.20
2018-12-21T08:14:59.641Z,6.26
2018-12-21T08:16:05.919Z,6.19
2018-12-21T08:17:01.034Z,6.17
2018-12-21T08:17:59.739Z,6.20
2018-12-21T08:18:59.686Z,6.26
2018-12-21T08:19:59.625Z,6.17
2018-12-21T08:20:59.569Z,6.20
2018-12-21T08:21:59.560Z,6.31
2018-12-21T08:22:59.932Z,6.17
2018-12-21T08:23:59.527Z,6.27
2018-12-21T08:24:59.524Z,6.16
2018-12-21T08:25:59.508Z,6.24
2018-12-21T08:26:59.938Z,6.19
2018-12-21T08:27:59.637Z,6.28
2018-12-21T08:29:04.233Z,6.22
2018-12-21T08:29:59.459Z,6.26
2018-12-21T08:31:00.246Z,6.30
2018-12-21T08:31:59.540Z,6.28
2018-12-21T08:32:59.705Z,6.26
2018-12-21T08:33:59.422Z,6.27
2018-12-21T08:34:59.796Z,6.33
2018-12-21T08:35:59.403Z,6.24
2018-12-21T08:36:59.433Z,6.35
2018-12-21T08:37:59.541Z,6.28
2018-12-21T08:38:59.370Z,6.26
2018-12-21T08:39:59.378Z,6.28
2018-12-21T08:40:59.626Z,6.36
2018-12-21T08:41:59.330Z,6.22
2018-12-21T08:42:59.649Z,6.26
2018-12-21T08:43:59.324Z,6.26
2018-12-21T08:44:59.353Z,6.26
2018-12-21T08:45:59.970Z,6.28
2018-12-21T08:47:02.263Z,6.22
2018-12-21T08:47:59.296Z,6.35
2018-12-21T08:48:59.505Z,6.26
2018-12-21T08:50:01.236Z,6.17
2018-12-21T08:50:59.251Z,6.22
2018-12-21T08:51:59.225Z,6.22
2018-12-21T08:52:59.214Z,6.16
2018-12-21T08:53:59.237Z,6.20
2018-12-21T08:54:59.608Z,6.24
2018-12-21T08:55:59.871Z,6.24
2018-12-21T08:56:59.462Z,6.20
2018-12-21T08:57:59.175Z,6.19
2018-12-21T08:58:59.142Z,6.19
2018-12-21T08:59:59.309Z,6.27
2018-12-21T09:01:01.130Z,6.22
2018-12-21T09:01:59.114Z,6.20
2018-12-21T09:02:59.620Z,6.24
2018-12-21T09:03:59.103Z,6.22
2018-12-21T09:04:59.242Z,6.26
2018-12-21T09:05:59.106Z,6.20
2018-12-21T09:07:01.745Z,6.19
2018-12-21T09:07:59.081Z,6.24
2018-12-21T09:08:59.232Z,6.24
2018-12-21T09:09:59.763Z,6.17
2018-12-21T09:11:00.661Z,6.22
2018-12-21T09:11:59.388Z,6.35
2018-12-21T09:13:00.496Z,6.30
2018-12-21T09:13:59.244Z,6.31
2018-12-21T09:14:59.612Z,6.33
2018-12-21T09:15:59.303Z,6.39
2018-12-21T09:16:59.109Z,6.41
2018-12-21T09:17:59.207Z,6.41
2018-12-21T09:18:59.690Z,6.49
2018-12-21T09:19:59.052Z,6.42
2018-12-21T09:20:59.020Z,6.56
2018-12-21T09:21:59.106Z,6.51
2018-12-21T09:22:59.056Z,6.57
2018-12-21T09:24:01.179Z,6.57
2018-12-21T09:24:59.463Z,6.66
2018-12-21T09:25:59.184Z,6.70
2018-12-21T09:26:58.839Z,6.77
2018-12-21T09:27:59.194Z,6.75
2018-12-21T09:28:59.656Z,6.72
2018-12-21T09:29:58.815Z,6.77
2018-12-21T09:31:02.562Z,6.72
2018-12-21T09:32:05.185Z,6.74
2018-12-21T09:32:58.775Z,6.74
2018-12-21T09:33:58.771Z,6.81
2018-12-21T09:34:58.751Z,6.81
2018-12-21T09:35:59.072Z,6.85
2018-12-21T09:36:59.427Z,6.85
2018-12-21T09:37:59.588Z,6.78
2018-12-21T09:38:58.724Z,6.81
2018-12-21T09:39:58.691Z,6.82
2018-12-21T09:40:58.802Z,6.82
2018-12-21T09:41:59.645Z,6.89
2018-12-21T09:42:58.710Z,6.93
2018-12-21T09:43:58.663Z,6.82
2018-12-21T09:44:58.636Z,6.89
2018-12-21T09:45:59.195Z,6.95
2018-12-21T09:46:58.618Z,6.92
2018-12-21T09:47:59.313Z,6.97
2018-12-21T09:48:58.621Z,6.93
2018-12-21T09:49:58.645Z,7.02
2018-12-21T09:50:58.574Z,6.95
2018-12-21T09:51:58.563Z,6.93
2018-12-21T09:53:00.370Z,6.96
2018-12-21T09:53:59.022Z,6.95
2018-12-21T09:54:58.845Z,6.88
2018-12-21T09:55:58.600Z,7.00
2018-12-21T09:56:58.656Z,6.97
2018-12-21T09:57:58.516Z,7.07
2018-12-21T09:58:58.484Z,7.05
2018-12-21T09:59:59.274Z,7.05
2018-12-21T10:00:58.488Z,7.07
2018-12-21T10:01:58.493Z,7.10
2018-12-21T10:02:58.448Z,7.13
2018-12-21T10:03:58.509Z,7.07
2018-12-21T10:04:59.231Z,7.15
2018-12-21T10:05:58.415Z,7.06
2018-12-21T10:06:58.425Z,7.21
2018-12-21T10:07:58.855Z,7.17
2018-12-21T10:08:58.658Z,7.18
2018-12-21T10:09:58.375Z,7.29
2018-12-21T10:10:59.676Z,7.23
2018-12-21T10:11:58.844Z,7.31
2018-12-21T10:12:58.655Z,7.32
2018-12-21T10:14:00.522Z,7.23
2018-12-21T10:14:58.773Z,7.28
2018-12-21T10:15:58.602Z,7.28
2018-12-21T10:16:59.780Z,7.32
2018-12-21T10:17:58.293Z,7.33
2018-12-21T10:18:58.270Z,7.25
2018-12-21T10:19:58.489Z,7.29
2018-12-21T10:20:58.250Z,7.35
2018-12-21T10:21:58.241Z,7.25
2018-12-21T10:22:58.806Z,7.28
2018-12-21T10:23:58.213Z,7.18
2018-12-21T10:25:05.767Z,7.24
2018-12-21T10:25:58.200Z,7.29
2018-12-21T10:26:58.186Z,7.25
2018-12-21T10:27:58.210Z,7.28
2018-12-21T10:28:58.603Z,7.33
2018-12-21T10:29:58.277Z,7.29
2018-12-21T10:30:58.498Z,7.31
2018-12-21T10:31:58.162Z,7.36
2018-12-21T10:32:58.118Z,7.35
2018-12-21T10:33:58.118Z,7.32
2018-12-21T10:35:02.724Z,7.35
2018-12-21T10:35:58.641Z,7.33
2018-12-21T10:37:00.418Z,7.35
2018-12-21T10:37:58.069Z,7.39
2018-12-21T10:38:58.046Z,7.39
2018-12-21T10:39:58.046Z,7.42
2018-12-21T10:40:59.412Z,7.36
2018-12-21T10:41:58.019Z,7.42
2018-12-21T10:42:58.706Z,7.53
2018-12-21T10:43:57.999Z,7.39
2018-12-21T10:44:58.002Z,7.43
2018-12-21T10:45:57.983Z,7.45
2018-12-21T10:46:58.786Z,7.40
2018-12-21T10:48:00.068Z,7.45
2018-12-21T10:48:58.176Z,7.45
2018-12-21T10:49:58.366Z,7.54
2018-12-21T10:50:57.928Z,7.54
2018-12-21T10:51:57.935Z,7.58
2018-12-21T10:52:58.713Z,7.57
2018-12-21T10:53:57.911Z,7.56
2018-12-21T10:54:57.900Z,7.57
2018-12-21T10:55:59.875Z,7.57
2018-12-21T10:56:57.864Z,7.53
2018-12-21T10:57:57.841Z,7.45
2018-12-21T10:59:00.671Z,7.47
2018-12-21T10:59:57.994Z,7.45
2018-12-21T11:00:58.022Z,7.51
2018-12-21T11:01:57.867Z,7.51
2018-12-21T11:02:57.793Z,7.39
2018-12-21T11:03:57.898Z,7.45
2018-12-21T11:04:57.944Z,7.39
2018-12-21T11:05:58.148Z,7.51
2018-12-21T11:06:58.391Z,7.43
2018-12-21T11:07:57.935Z,7.43
2018-12-21T11:08:57.723Z,7.35
2018-12-21T11:09:57.713Z,7.39
2018-12-21T11:10:58.114Z,7.33
2018-12-21T11:11:57.817Z,7.38
2018-12-21T11:12:58.120Z,7.35
2018-12-21T11:13:58.162Z,7.36
2018-12-21T11:14:59.671Z,7.38
2018-12-21T11:15:57.653Z,7.38
2018-12-21T11:17:03.377Z,7.32
2018-12-21T11:17:57.627Z,7.33
2018-12-21T11:18:57.722Z,7.35
2018-12-21T11:19:57.605Z,7.36
2018-12-21T11:20:57.644Z,7.35
2018-12-21T11:21:57.589Z,7.48
2018-12-21T11:22:58.552Z,7.47
2018-12-21T11:23:57.571Z,7.48
2018-12-21T11:24:57.565Z,7.45
2018-12-21T11:25:57.543Z,7.45
2018-12-21T11:26:57.535Z,7.54
2018-12-21T11:27:57.547Z,7.54
2018-12-21T11:28:58.206Z,7.60
2018-12-21T11:29:57.640Z,7.54
2018-12-21T11:30:57.489Z,7.48
2018-12-21T11:31:57.489Z,7.51
2018-12-21T11:32:57.476Z,7.56
2018-12-21T11:33:57.460Z,7.51
2018-12-21T11:34:57.691Z,7.51
2018-12-21T11:35:57.511Z,7.51
2018-12-21T11:36:58.500Z,7.56
2018-12-21T11:37:59.908Z,7.54
2018-12-21T11:38:58.294Z,7.56
2018-12-21T11:39:57.546Z,7.56
2018-12-21T11:40:59.532Z,7.51
2018-12-21T11:41:57.378Z,7.47
2018-12-21T11:42:57.347Z,7.54
2018-12-21T11:43:57.397Z,7.40
2018-12-21T11:44:57.344Z,7.43
2018-12-21T11:45:57.322Z,7.40
2018-12-21T11:46:57.537Z,7.51
2018-12-21T11:48:04.419Z,7.45
2018-12-21T11:48:57.358Z,7.39
2018-12-21T11:49:57.351Z,7.36
2018-12-21T11:50:57.349Z,7.42
2018-12-21T11:51:57.275Z,7.39
2018-12-21T11:52:57.962Z,7.43
2018-12-21T11:53:57.228Z,7.36
2018-12-21T11:54:59.031Z,7.45
2018-12-21T11:55:57.219Z,7.40
2018-12-21T11:56:57.264Z,7.43
2018-12-21T11:57:57.210Z,7.45
2018-12-21T11:59:02.116Z,7.36
2018-12-21T11:59:57.170Z,7.40
2018-12-21T12:00:57.158Z,7.29
2018-12-21T12:01:57.159Z,7.36
2018-12-21T12:02:57.148Z,7.36
2018-12-21T12:03:57.230Z,7.35
2018-12-21T12:04:58.923Z,7.36
2018-12-21T12:05:57.383Z,7.39
2018-12-21T12:06:57.113Z,7.35
2018-12-21T12:07:57.590Z,7.40
2018-12-21T12:09:06.044Z,7.42
2018-12-21T12:09:58.062Z,7.36
2018-12-21T12:11:02.652Z,7.43
2018-12-21T12:11:57.459Z,7.38
2018-12-21T12:12:57.257Z,7.38
2018-12-21T12:13:57.350Z,7.43
2018-12-21T12:14:57.465Z,7.45
2018-12-21T12:15:57.089Z,7.47
2018-12-21T12:16:58.721Z,7.35
2018-12-21T12:17:57.076Z,7.42
2018-12-21T12:18:57.090Z,7.29
2018-12-21T12:19:57.724Z,7.45
2018-12-21T12:20:57.080Z,7.35
2018-12-21T12:21:57.080Z,7.39
2018-12-21T12:22:57.538Z,7.45
2018-12-21T12:23:57.089Z,7.43
2018-12-21T12:24:57.169Z,7.38
2018-12-21T12:25:57.043Z,7.40
2018-12-21T12:26:57.209Z,7.38
2018-12-21T12:27:57.380Z,7.39
2018-12-21T12:28:57.721Z,7.42
2018-12-21T12:29:56.854Z,7.36
2018-12-21T12:30:56.910Z,7.36
2018-12-21T12:31:56.825Z,7.32
2018-12-21T12:32:56.828Z,7.35
2018-12-21T12:33:56.806Z,7.39
2018-12-21T12:34:57.521Z,7.35
2018-12-21T12:35:56.772Z,7.32
2018-12-21T12:36:58.101Z,7.32
2018-12-21T12:37:57.745Z,7.39
2018-12-21T12:38:56.768Z,7.32
2018-12-21T12:39:56.734Z,7.32
2018-12-21T12:41:06.515Z,7.24
2018-12-21T12:41:58.318Z,7.28
2018-12-21T12:42:56.705Z,7.24
2018-12-21T12:43:57.235Z,7.21
2018-12-21T12:44:56.861Z,7.24
2018-12-21T12:45:56.747Z,7.24
2018-12-21T12:46:57.263Z,7.18
2018-12-21T12:47:57.774Z,7.05
2018-12-21T12:48:56.669Z,7.10
2018-12-21T12:49:56.627Z,7.11
2018-12-21T12:50:56.608Z,7.11
2018-12-21T12:51:56.600Z,7.07
2018-12-21T12:52:57.716Z,7.06
2018-12-21T12:53:56.847Z,7.00
2018-12-21T12:55:02.528Z,7.02
2018-12-21T12:55:57.962Z,6.93
2018-12-21T12:56:57.696Z,6.93
2018-12-21T12:57:57.418Z,6.96
2018-12-21T12:58:58.136Z,6.88
2018-12-21T12:59:56.525Z,6.89
2018-12-21T13:00:56.700Z,6.87
2018-12-21T13:02:00.320Z,6.87
2018-12-21T13:02:57.093Z,6.82
2018-12-21T13:03:57.043Z,6.84
2018-12-21T13:05:00.155Z,6.75
2018-12-21T13:05:56.466Z,6.79
2018-12-21T13:06:58.065Z,6.75
2018-12-21T13:07:58.221Z,6.72
2018-12-21T13:08:57.324Z,6.78
2018-12-21T13:09:57.687Z,6.79
2018-12-21T13:10:57.544Z,6.67
2018-12-21T13:11:56.405Z,6.66
2018-12-21T13:12:56.373Z,6.70
2018-12-21T13:13:56.434Z,6.67
2018-12-21T13:14:56.406Z,6.70
2018-12-21T13:15:57.528Z,6.63
2018-12-21T13:16:56.605Z,6.70
2018-12-21T13:17:56.539Z,6.77